Time;durP1;ratioP1;P1;durP2;ratioP2;P2;SDS_P1;SDS_P2;PMS_P1;PMS_P2;Temp;Humidity;BMP_temperature;BMP_pressure;BME280_temperature;BME280_humidity;BME280_pressure;Samples;Min_cycle;Max_cycle;Signal;HPM_P1;HPM_P2
2023/04/04 00:00:37;;;;;;;4.75;1.98;;;;;;;5.66;44.40;102927.91;4905456;28;124095;-71
2023/04/04 00:03:05;;;;;;;5.45;2.22;;;;;;;5.64;44.34;102932.25;4912093;28;114788;-69
2023/04/04 00:05:34;;;;;;;4.78;2.00;;;;;;;5.59;44.21;102928.72;4912618;28;113964;-70
2023/04/04 00:08:02;;;;;;;6.35;2.08;;;;;;;5.57;44.52;102934.81;4912184;28;123099;-71
2023/04/04 00:10:30;;;;;;;3.72;2.20;;;;;;;5.51;44.70;102935.66;4911122;28;124078;-70
2023/04/04 00:12:57;;;;;;;5.70;2.10;;;;;;;5.46;44.46;102930.38;4910955;28;115271;-70
2023/04/04 00:15:25;;;;;;;6.35;2.00;;;;;;;5.43;44.62;102932.06;4901960;28;114538;-70
2023/04/04 00:17:52;;;;;;;4.75;2.25;;;;;;;5.40;44.76;102930.28;4910074;28;124475;-70
2023/04/04 00:20:19;;;;;;;3.65;1.98;;;;;;;5.39;44.88;102930.28;4896439;28;122986;-70
2023/04/04 00:22:46;;;;;;;3.40;1.85;;;;;;;5.37;44.89;102926.72;4912714;28;114990;-70
2023/04/04 00:25:14;;;;;;;5.07;2.40;;;;;;;5.35;44.83;102928.47;4910535;28;114112;-70
2023/04/04 00:27:41;;;;;;;5.60;2.00;;;;;;;5.33;44.99;102924.94;4911345;28;124665;-70
2023/04/04 00:30:11;;;;;;;4.90;2.17;;;;;;;5.30;44.74;102930.19;4911423;28;124264;-70
2023/04/04 00:32:38;;;;;;;3.78;2.03;;;;;;;5.28;44.74;102931.91;4910405;28;113331;-71
2023/04/04 00:35:06;;;;;;;4.13;2.08;;;;;;;5.21;44.96;102931.84;4911893;28;114138;-70
2023/04/04 00:37:34;;;;;;;5.10;2.00;;;;;;;5.18;44.83;102931.81;4909184;28;124034;-70
2023/04/04 00:40:03;;;;;;;4.25;2.20;;;;;;;5.15;45.05;102926.53;4901016;28;123039;-69
2023/04/04 00:42:32;;;;;;;6.93;2.05;;;;;;;5.14;45.26;102930.03;4908493;28;114764;-69
2023/04/04 00:45:01;;;;;;;6.00;1.80;;;;;;;5.12;45.26;102925.59;4911766;28;113139;-69
2023/04/04 00:47:32;;;;;;;5.18;2.20;;;;;;;5.11;45.12;102924.72;4911385;28;123807;-69
2023/04/04 00:50:00;;;;;;;3.80;1.83;;;;;;;5.10;45.23;102928.19;4883882;28;123091;-70
2023/04/04 00:52:28;;;;;;;5.32;1.98;;;;;;;5.09;45.37;102918.59;4898713;28;114624;-74
2023/04/04 00:54:55;;;;;;;4.45;2.00;;;;;;;5.07;45.33;102928.19;4906406;28;112966;-69
2023/04/04 00:57:23;;;;;;;5.47;2.38;;;;;;;5.05;45.17;102929.91;4914334;28;123822;-69
2023/04/04 00:59:51;;;;;;;4.05;1.98;;;;;;;5.00;45.26;102926.34;4910772;28;124009;-69
2023/04/04 01:02:19;;;;;;;4.53;2.00;;;;;;;4.96;45.41;102924.56;4915005;28;115722;-70
2023/04/04 01:04:47;;;;;;;4.80;2.17;;;;;;;4.93;45.29;102924.50;4912217;28;113996;-69
2023/04/04 01:07:14;;;;;;;4.40;2.03;;;;;;;4.90;45.28;102913.97;4913232;28;123933;-70
2023/04/04 01:09:42;;;;;;;5.03;2.22;;;;;;;4.87;45.65;102920.94;4914704;28;122778;-69
2023/04/04 01:12:10;;;;;;;6.18;2.30;;;;;;;4.85;45.37;102911.28;4908420;28;113725;-69
2023/04/04 01:14:39;;;;;;;5.95;2.15;;;;;;;4.84;45.77;102909.50;4912222;28;113570;-69
2023/04/04 01:17:07;;;;;;;6.15;2.30;;;;;;;4.80;45.47;102911.25;4898847;28;123690;-70
2023/04/04 01:19:42;;;;;;;3.85;2.00;;;;;;;4.79;45.71;102905.97;4888022;28;123201;-69
2023/04/04 01:22:15;;;;;;;6.25;2.28;;;;;;;4.76;46.00;102911.19;4911758;28;114444;-69
2023/04/04 01:24:45;;;;;;;5.82;1.90;;;;;;;4.74;45.50;102913.78;4886661;28;113791;-69
2023/04/04 01:27:13;;;;;;;4.13;1.90;;;;;;;4.72;45.74;102907.63;4896070;28;123215;-69
2023/04/04 01:29:48;;;;;;;5.68;2.17;;;;;;;4.70;45.96;102906.72;4904823;28;126468;-70
2023/04/04 01:32:26;;;;;;;5.40;2.25;;;;;;;4.68;45.89;102914.56;4898411;28;114154;-70
2023/04/04 01:35:13;;;;;;;5.78;2.17;;;;;;;4.64;45.98;102904.03;4911553;28;113218;-70
2023/04/04 01:38:23;;;;;;;4.38;2.08;;;;;;;4.60;45.88;102904.88;4897769;28;123001;-70
2023/04/04 01:40:54;;;;;;;4.88;1.95;;;;;;;4.56;45.92;102916.16;4909622;28;123652;-69
2023/04/04 01:43:22;;;;;;;4.38;2.20;;;;;;;4.50;45.79;102914.31;4909379;28;118931;-70
2023/04/04 01:45:50;;;;;;;5.38;2.08;;;;;;;4.46;45.94;102907.28;4910443;28;117183;-70
2023/04/04 01:48:18;;;;;;;4.35;2.03;;;;;;;4.43;46.20;102908.13;4901720;28;122328;-70
2023/04/04 01:50:50;;;;;;;5.72;2.45;;;;;;;4.41;46.35;102909.84;4910985;28;123350;-69
2023/04/04 01:53:18;;;;;;;7.47;2.00;;;;;;;4.38;46.24;102909.81;4912380;28;120439;-70
2023/04/04 01:55:45;;;;;;;5.65;2.22;;;;;;;4.36;46.25;102914.16;4899054;28;118986;-70
2023/04/04 01:58:19;;;;;;;5.20;2.10;;;;;;;4.33;46.25;102905.34;4902496;28;123109;-70
2023/04/04 02:00:48;;;;;;;3.78;1.98;;;;;;;4.30;46.26;102900.94;4900317;28;123573;-70
2023/04/04 02:03:16;;;;;;;5.25;1.60;;;;;;;4.26;46.21;102899.16;4912113;28;118209;-70
2023/04/04 02:05:43;;;;;;;4.68;2.00;;;;;;;4.22;46.06;102903.47;4910240;28;118829;-70
2023/04/04 02:08:12;;;;;;;3.80;1.80;;;;;;;4.19;46.07;102897.28;4897182;28;122607;-70
2023/04/04 02:10:47;;;;;;;4.43;2.00;;;;;;;4.16;46.00;102902.47;4900889;28;122982;-71
2023/04/04 02:13:14;;;;;;;4.18;1.70;;;;;;;4.13;46.22;102907.69;4909725;28;118587;-71
2023/04/04 02:15:43;;;;;;;4.68;1.60;;;;;;;4.11;46.31;102899.81;4899678;28;117860;-70
2023/04/04 02:18:10;;;;;;;4.18;1.55;;;;;;;4.09;46.32;102906.78;4895607;28;125368;-71
2023/04/04 02:20:39;;;;;;;3.67;1.50;;;;;;;4.07;46.21;102914.59;4899540;28;122660;-70
2023/04/04 02:23:06;;;;;;;3.92;1.70;;;;;;;4.05;46.00;102911.09;4911260;28;119329;-70
2023/04/04 02:25:35;;;;;;;4.13;1.77;;;;;;;4.02;46.05;102913.63;4910150;28;119053;-70
2023/04/04 02:28:02;;;;;;;3.05;1.48;;;;;;;4.00;46.42;102917.97;4911054;28;123709;-71
2023/04/04 02:30:29;;;;;;;5.85;1.83;;;;;;;4.00;46.14;102915.38;4909850;28;124173;-70
2023/04/04 02:32:58;;;;;;;4.65;1.75;;;;;;;3.99;46.08;102921.44;4911029;28;118476;-70
2023/04/04 02:35:27;;;;;;;4.90;1.70;;;;;;;3.99;46.30;102923.19;4896647;28;118197;-70
2023/04/04 02:37:55;;;;;;;4.57;1.88;;;;;;;3.97;46.34;102917.91;4909838;28;124242;-70
2023/04/04 02:40:26;;;;;;;4.80;1.90;;;;;;;3.94;46.16;102923.13;4900427;28;123006;-70
2023/04/04 02:42:53;;;;;;;4.28;1.73;;;;;;;3.93;46.42;102921.34;4910304;28;120623;-70
2023/04/04 02:45:21;;;;;;;4.25;1.58;;;;;;;3.91;46.31;102912.59;4911604;28;119066;-70
2023/04/04 02:47:57;;;;;;;3.83;1.70;;;;;;;3.91;46.36;102909.97;4900657;28;126598;-70
2023/04/04 02:50:35;;;;;;;5.05;2.05;;;;;;;3.90;46.45;102910.84;4896288;28;126843;-69
2023/04/04 02:53:03;;;;;;;5.15;1.90;;;;;;;3.89;46.24;102914.31;4895194;28;118576;-70
2023/04/04 02:55:33;;;;;;;3.05;1.40;;;;;;;3.87;46.43;102905.53;4912900;28;118930;-70
2023/04/04 02:58:01;;;;;;;6.13;1.63;;;;;;;3.85;46.34;102902.00;4910263;28;122895;-70
2023/04/04 03:00:29;;;;;;;4.22;1.83;;;;;;;3.84;46.52;102905.47;4897031;28;122990;-70
2023/04/04 03:02:56;;;;;;;3.65;1.55;;;;;;;3.81;46.44;102905.44;4911651;28;119419;-70
2023/04/04 03:05:34;;;;;;;3.58;1.70;;;;;;;3.81;46.41;102900.22;4895086;28;118284;-70
2023/04/04 03:08:03;;;;;;;3.92;1.55;;;;;;;3.78;46.47;102906.25;4898138;28;123220;-69
2023/04/04 03:10:31;;;;;;;4.30;1.60;;;;;;;3.79;46.66;102901.94;4910026;28;124192;-69
2023/04/04 03:12:58;;;;;;;4.32;1.80;;;;;;;3.77;46.67;102898.38;4910183;28;120688;-70
2023/04/04 03:15:27;;;;;;;3.13;1.60;;;;;;;3.74;46.69;102893.97;4893686;28;118563;-70
2023/04/04 03:17:55;;;;;;;6.35;1.83;;;;;;;3.72;46.44;102887.81;4901994;28;123185;-69
2023/04/04 03:20:25;;;;;;;3.83;1.65;;;;;;;3.72;46.59;102894.81;4894356;28;122928;-70
2023/04/04 03:22:53;;;;;;;8.63;1.73;;;;;;;3.72;46.80;102900.06;4910238;28;118937;-69
2023/04/04 03:25:20;;;;;;;4.78;1.85;;;;;;;3.69;46.70;102880.81;4899018;28;118708;-70
2023/04/04 03:27:47;;;;;;;4.82;1.67;;;;;;;3.68;46.57;102884.28;4911294;28;124385;-70
2023/04/04 03:30:22;;;;;;;6.93;1.90;;;;;;;3.65;46.65;102884.19;4900711;28;123058;-71
2023/04/04 03:32:49;;;;;;;5.15;1.65;;;;;;;3.65;46.68;102889.44;4893309;28;118672;-70
2023/04/04 03:35:17;;;;;;;5.03;2.05;;;;;;;3.63;46.63;102891.16;4907522;28;120899;-70
2023/04/04 03:37:44;;;;;;;4.00;1.85;;;;;;;3.63;46.79;102891.16;4910426;28;124120;-70
2023/04/04 03:40:12;;;;;;;3.60;1.70;;;;;;;3.62;46.80;102892.03;4912494;28;122728;-70
2023/04/04 03:42:40;;;;;;;4.00;1.75;;;;;;;3.62;46.79;102889.41;4903564;28;118486;-70
2023/04/04 03:45:10;;;;;;;6.43;2.25;;;;;;;3.60;46.78;102885.88;4894820;28;118080;-70
2023/04/04 03:47:39;;;;;;;3.00;1.70;;;;;;;3.59;46.72;102884.13;4895872;28;122968;-71
2023/04/04 03:50:07;;;;;;;4.57;1.58;;;;;;;3.59;46.70;102894.59;4907537;28;123018;-70
2023/04/04 03:52:38;;;;;;;7.53;1.88;;;;;;;3.57;46.83;102891.06;4893319;28;118417;-71
2023/04/04 03:55:07;;;;;;;4.53;1.98;;;;;;;3.55;46.74;102898.03;4910883;28;118006;-71
2023/04/04 03:57:35;;;;;;;4.55;1.80;;;;;;;3.53;46.76;102884.00;4899937;28;122943;-71
2023/04/04 04:00:05;;;;;;;4.55;2.05;;;;;;;3.52;46.85;102887.47;4909098;28;124680;-70
2023/04/04 04:02:39;;;;;;;5.13;1.75;;;;;;;3.52;46.84;102887.47;4909633;28;120180;-70
2023/04/04 04:05:08;;;;;;;5.30;1.92;;;;;;;3.51;46.71;102880.50;4900293;28;118309;-72
2023/04/04 04:07:42;;;;;;;4.45;1.90;;;;;;;3.49;46.91;102882.19;4908809;28;123933;-70
2023/04/04 04:10:10;;;;;;;4.20;1.95;;;;;;;3.48;46.71;102878.72;4908990;28;123412;-70
2023/04/04 04:12:38;;;;;;;4.20;1.90;;;;;;;3.47;46.68;102873.44;4892890;28;118516;-70
2023/04/04 04:15:06;;;;;;;3.65;1.77;;;;;;;3.46;46.88;102871.66;4895187;28;119019;-70
2023/04/04 04:17:33;;;;;;;5.55;2.10;;;;;;;3.44;46.82;102873.38;4891885;28;123276;-71
2023/04/04 04:20:01;;;;;;;4.07;1.90;;;;;;;3.42;46.77;102872.47;4894805;28;123134;-71
2023/04/04 04:22:36;;;;;;;3.97;1.67;;;;;;;3.40;46.78;102871.56;4899513;28;119122;-70
2023/04/04 04:25:06;;;;;;;4.85;2.00;;;;;;;3.38;46.79;102875.91;4898478;28;118979;-70
2023/04/04 04:27:34;;;;;;;7.18;1.90;;;;;;;3.37;46.97;102881.97;4895266;28;123346;-70
2023/04/04 04:30:03;;;;;;;3.72;1.80;;;;;;;3.33;46.74;102874.91;4912105;28;124121;-70
2023/04/04 04:32:35;;;;;;;4.07;1.90;;;;;;;3.30;46.97;102876.63;4902281;28;119377;-70
2023/04/04 04:35:03;;;;;;;5.05;1.90;;;;;;;3.28;47.04;102867.00;4898708;28;118234;-70
2023/04/04 04:37:33;;;;;;;5.30;2.10;;;;;;;3.27;46.87;102870.47;4907466;28;121812;-70
2023/04/04 04:40:02;;;;;;;4.75;2.20;;;;;;;3.25;47.21;102869.56;4883895;28;122884;-71
2023/04/04 04:42:43;;;;;;;5.22;2.03;;;;;;;3.25;47.04;102883.53;4912386;28;119464;-70
2023/04/04 04:45:10;;;;;;;4.07;1.55;;;;;;;3.23;46.86;102879.13;4896674;28;117854;-70
2023/04/04 04:47:41;;;;;;;3.75;1.80;;;;;;;3.22;47.20;102877.34;4910324;28;123441;-70
2023/04/04 04:50:10;;;;;;;5.57;1.67;;;;;;;3.19;47.07;102883.41;4908755;28;124019;-70
2023/04/04 04:52:43;;;;;;;5.43;1.95;;;;;;;3.18;47.02;102886.00;4912161;28;118311;-70
2023/04/04 04:55:16;;;;;;;4.05;1.70;;;;;;;3.13;46.96;102883.31;4900466;28;118209;-70
2023/04/04 04:57:49;;;;;;;4.07;1.63;;;;;;;3.11;46.99;102895.50;4900539;28;123241;-71
2023/04/04 05:00:22;;;;;;;3.97;1.67;;;;;;;3.08;46.91;102895.41;4911984;28;122670;-70
2023/04/04 05:02:53;;;;;;;4.63;1.83;;;;;;;3.05;47.23;102891.03;4903505;28;118604;-71
2023/04/04 05:05:29;;;;;;;5.20;1.90;;;;;;;3.04;47.16;102889.25;4895689;28;117978;-70
2023/04/04 05:08:03;;;;;;;4.20;1.52;;;;;;;3.03;47.22;102891.81;4895734;28;123551;-70
2023/04/04 05:10:32;;;;;;;3.88;1.73;;;;;;;3.02;47.35;102892.69;4895504;28;123116;-70
2023/04/04 05:13:00;;;;;;;6.07;1.70;;;;;;;3.03;47.25;102891.81;4899994;28;120157;-70
2023/04/04 05:15:33;;;;;;;3.92;2.03;;;;;;;3.03;47.27;102897.97;4904443;28;119264;-70
2023/04/04 05:18:01;;;;;;;3.35;1.70;;;;;;;3.04;47.19;102893.59;4911192;28;123839;-69
2023/04/04 05:20:28;;;;;;;3.92;1.90;;;;;;;3.04;47.44;102888.38;4910660;28;124062;-69
2023/04/04 05:22:59;;;;;;;6.32;1.80;;;;;;;3.05;47.35;102895.34;4912762;28;118422;-69
2023/04/04 05:25:33;;;;;;;4.18;2.00;;;;;;;3.06;47.21;102897.13;4894863;28;118130;-68
2023/04/04 05:28:02;;;;;;;4.32;1.90;;;;;;;3.05;47.24;102895.34;4895293;28;123191;-69
2023/04/04 05:30:31;;;;;;;7.32;1.90;;;;;;;3.05;47.20;102895.34;4893952;28;122950;-68
2023/04/04 05:33:15;;;;;;;7.00;2.35;;;;;;;3.05;47.40;102895.34;4893965;28;119640;-69
2023/04/04 05:35:49;;;;;;;7.53;2.00;;;;;;;3.04;47.43;102904.06;4898262;28;121147;-69
2023/04/04 05:38:17;;;;;;;3.33;1.65;;;;;;;3.03;47.31;102902.28;4907685;28;123114;-68
2023/04/04 05:40:47;;;;;;;7.70;2.10;;;;;;;3.03;47.47;102907.53;4905737;28;123938;-69
2023/04/04 05:43:15;;;;;;;3.00;1.73;;;;;;;3.03;47.43;102907.53;4910770;28;118931;-69
2023/04/04 05:45:52;;;;;;;3.80;2.03;;;;;;;3.03;47.48;102907.53;4902354;28;119289;-68
2023/04/04 05:48:20;;;;;;;6.00;2.25;;;;;;;3.05;47.50;102917.19;4894695;28;123400;-68
2023/04/04 05:50:50;;;;;;;4.90;2.40;;;;;;;3.07;47.28;102914.59;4908785;28;123604;-67
2023/04/04 05:53:23;;;;;;;5.03;2.33;;;;;;;3.09;47.51;102910.28;4908986;28;118748;-68
2023/04/04 05:55:52;;;;;;;7.50;2.47;;;;;;;3.13;47.71;102909.50;4910003;28;118203;-68
2023/04/04 05:58:22;;;;;;;5.18;2.60;;;;;;;3.15;47.50;102913.00;4907823;28;123087;-68
2023/04/04 06:00:54;;;;;;;4.32;2.33;;;;;;;3.17;47.71;102908.69;4893411;28;123471;-68
2023/04/04 06:03:21;;;;;;;5.40;2.30;;;;;;;3.18;47.53;102918.28;4893532;28;119533;-69
2023/04/04 06:05:53;;;;;;;6.63;2.70;;;;;;;3.21;47.79;102918.38;4898911;28;119236;-68
2023/04/04 06:08:20;;;;;;;5.78;2.60;;;;;;;3.24;47.61;102918.44;4906786;28;125086;-68
2023/04/04 06:10:47;;;;;;;5.35;3.30;;;;;;;3.27;47.73;102912.34;4911178;28;124654;-68
2023/04/04 06:13:15;;;;;;;7.47;3.30;;;;;;;3.31;47.77;102914.19;4909964;28;119047;-69
2023/04/04 06:15:48;;;;;;;5.90;2.92;;;;;;;3.38;47.78;102920.41;4894108;28;118232;-68
2023/04/04 06:18:18;;;;;;;5.55;2.85;;;;;;;3.45;47.97;102924.94;4892351;28;122829;-69
2023/04/04 06:20:45;;;;;;;7.50;3.20;;;;;;;3.52;47.95;102929.41;4909114;28;125228;-69
2023/04/04 06:23:14;;;;;;;8.52;3.15;;;;;;;3.62;48.22;102933.97;4911054;28;118358;-69
2023/04/04 06:25:44;;;;;;;8.73;3.30;;;;;;;3.70;48.05;102932.34;4883260;28;118276;-68
2023/04/04 06:28:15;;;;;;;7.70;3.30;;;;;;;3.82;48.03;102933.41;4911575;28;123213;-69
2023/04/04 06:30:44;;;;;;;6.13;3.00;;;;;;;3.92;48.17;102943.19;4908486;28;123131;-68
2023/04/04 06:33:14;;;;;;;5.53;2.80;;;;;;;4.03;48.42;102933.78;4896843;28;118341;-68
2023/04/04 06:35:46;;;;;;;11.13;3.30;;;;;;;4.18;48.22;102937.47;4911921;28;119211;-69
2023/04/04 06:38:14;;;;;;;4.22;2.67;;;;;;;4.32;48.30;102935.09;4903027;28;123262;-69
2023/04/04 06:40:42;;;;;;;6.13;3.17;;;;;;;4.44;48.36;102936.13;4909548;28;123434;-69
2023/04/04 06:43:10;;;;;;;5.20;2.65;;;;;;;4.55;48.42;102933.66;4895373;28;118866;-69
2023/04/04 06:45:41;;;;;;;5.93;2.70;;;;;;;4.65;48.17;102940.81;4895768;28;118518;-69
2023/04/04 06:48:08;;;;;;;7.15;2.92;;;;;;;4.76;48.47;102947.91;4909596;28;124373;-69
2023/04/04 06:50:37;;;;;;;7.03;2.95;;;;;;;4.86;48.48;102934.94;4893187;28;122976;-69
2023/04/04 06:53:08;;;;;;;7.00;2.95;;;;;;;5.06;48.55;102936.91;4894631;28;119478;-69
2023/04/04 06:55:35;;;;;;;9.73;3.22;;;;;;;5.24;48.83;102934.50;4910768;28;120432;-69
2023/04/04 06:58:03;;;;;;;6.25;2.97;;;;;;;5.42;48.82;102932.94;4910933;28;124149;-69
2023/04/04 07:00:30;;;;;;;7.05;2.75;;;;;;;5.62;48.72;102934.00;4922294;28;123882;-69
2023/04/04 07:02:58;;;;;;;7.88;2.65;;;;;;;5.78;48.45;102935.03;4910122;28;119231;-69
2023/04/04 07:05:26;;;;;;;5.53;2.58;;;;;;;5.89;48.50;102927.22;4894472;28;118240;-69
2023/04/04 07:07:55;;;;;;;5.63;2.95;;;;;;;5.97;48.34;102936.09;4912775;28;123643;-69
2023/04/04 07:10:24;;;;;;;5.07;2.53;;;;;;;6.04;48.09;102935.25;4910675;28;123819;-69
2023/04/04 07:12:52;;;;;;;5.40;2.55;;;;;;;6.15;48.12;102934.47;4908783;28;119501;-69
2023/04/04 07:15:19;;;;;;;6.70;3.05;;;;;;;6.26;48.17;102938.06;4909469;28;119042;-69
2023/04/04 07:17:46;;;;;;;7.93;2.30;;;;;;;6.38;48.13;102932.84;4908495;28;124445;-69
2023/04/04 07:20:14;;;;;;;6.82;2.45;;;;;;;6.54;48.46;102938.25;4908841;28;123899;-69
2023/04/04 07:22:43;;;;;;;4.65;2.15;;;;;;;6.66;47.99;102938.28;4909046;28;119918;-69
2023/04/04 07:25:12;;;;;;;6.45;2.40;;;;;;;6.74;47.68;102936.59;4908802;28;119485;-69
2023/04/04 07:27:42;;;;;;;4.22;2.05;;;;;;;6.85;47.77;102939.25;4911316;28;124094;-72
2023/04/04 07:30:10;;;;;;;4.15;2.30;;;;;;;6.98;47.87;102924.38;4908676;28;124197;-69
2023/04/04 07:32:37;;;;;;;6.20;2.28;;;;;;;7.16;48.00;102924.44;4908389;28;119599;-68
2023/04/04 07:35:05;;;;;;;5.30;2.40;;;;;;;7.36;48.09;102928.88;4898548;28;117929;-69
2023/04/04 07:37:36;;;;;;;6.57;2.95;;;;;;;7.50;47.30;102935.06;4892917;28;124238;-69
2023/04/04 07:40:07;;;;;;;5.30;2.65;;;;;;;7.62;47.51;102933.31;4899245;28;123712;-69
2023/04/04 07:42:34;;;;;;;4.13;2.60;;;;;;;7.74;47.41;102938.59;4896654;28;120516;-69
2023/04/04 07:45:03;;;;;;;5.68;2.38;;;;;;;7.85;47.15;102942.09;4891848;28;119935;-69
2023/04/04 07:47:30;;;;;;;6.70;2.90;;;;;;;7.95;47.28;102933.31;4908130;28;123829;-68
2023/04/04 07:49:57;;;;;;;4.53;2.40;;;;;;;8.11;47.22;102933.31;4911104;28;124254;-68
2023/04/04 07:52:24;;;;;;;5.93;2.60;;;;;;;8.23;46.89;102933.31;4908083;28;119456;-69
2023/04/04 07:54:52;;;;;;;5.18;2.53;;;;;;;8.30;46.49;102929.75;4890354;28;116751;-69
2023/04/04 07:57:19;;;;;;;5.18;2.35;;;;;;;8.36;46.47;102924.47;4903981;28;124017;-68
2023/04/04 07:59:46;;;;;;;6.13;2.67;;;;;;;8.43;46.25;102929.78;4907846;28;124034;-68
2023/04/04 08:02:13;;;;;;;6.53;3.17;;;;;;;8.51;46.31;102922.69;4902557;28;119106;-68
2023/04/04 08:04:41;;;;;;;6.78;2.78;;;;;;;8.59;46.17;102923.56;4913099;28;118818;-68
2023/04/04 08:07:08;;;;;;;4.60;2.53;;;;;;;8.70;46.18;102923.50;4910767;28;124086;-69
2023/04/04 08:09:35;;;;;;;4.75;2.63;;;;;;;8.79;46.10;102928.75;4912176;28;124867;-69
2023/04/04 08:12:04;;;;;;;4.88;2.55;;;;;;;8.88;46.09;102925.22;4910802;28;119389;-69
2023/04/04 08:14:32;;;;;;;6.55;2.30;;;;;;;9.00;46.00;102926.91;4911822;28;119312;-69
2023/04/04 08:17:00;;;;;;;5.13;2.28;;;;;;;9.08;45.63;102926.00;4912436;28;123522;-69
2023/04/04 08:19:27;;;;;;;3.95;2.20;;;;;;;9.15;45.47;102927.72;4913249;28;124255;-69
2023/04/04 08:21:56;;;;;;;5.28;2.35;;;;;;;9.23;45.72;102929.44;4913161;28;119276;-69
2023/04/04 08:24:24;;;;;;;6.10;2.63;;;;;;;9.33;45.32;102923.22;4915455;28;118843;-71
2023/04/04 08:26:54;;;;;;;4.97;2.20;;;;;;;9.41;45.27;102923.16;4912679;28;123817;-71
2023/04/04 08:29:31;;;;;;;7.18;2.03;;;;;;;9.54;45.41;102924.84;4905735;28;124225;-71
2023/04/04 08:32:00;;;;;;;5.03;2.13;;;;;;;9.69;45.38;102918.56;4909056;28;120465;-70
2023/04/04 08:34:27;;;;;;;5.47;2.08;;;;;;;9.82;44.34;102920.19;4914782;28;119976;-70
2023/04/04 08:36:55;;;;;;;4.78;1.90;;;;;;;9.90;44.66;102915.72;4915035;28;124190;-71
2023/04/04 08:39:22;;;;;;;3.05;1.67;;;;;;;10.03;44.80;102918.25;4912847;28;123753;-71
2023/04/04 08:42:00;;;;;;;4.68;1.30;;;;;;;10.16;43.93;102913.72;4924580;28;118251;-72
2023/04/04 08:44:29;;;;;;;3.00;1.40;;;;;;;10.23;43.96;102910.13;4910632;28;119036;-70
2023/04/04 08:47:03;;;;;;;4.57;1.75;;;;;;;10.33;43.93;102912.69;4919603;28;124088;-70
2023/04/04 08:49:36;;;;;;;5.32;1.50;;;;;;;10.45;43.42;102916.09;4911713;28;123765;-68
2023/04/04 08:52:05;;;;;;;3.20;1.65;;;;;;;10.51;43.15;102910.75;4894100;28;119858;-69
2023/04/04 08:54:33;;;;;;;3.97;1.55;;;;;;;10.56;43.18;102919.50;4896284;28;118603;-68
2023/04/04 08:57:01;;;;;;;4.15;1.40;;;;;;;10.62;42.67;102910.59;4906018;28;124304;-69
2023/04/04 08:59:28;;;;;;;4.22;1.50;;;;;;;10.66;42.43;102910.56;4910575;28;124541;-69
2023/04/04 09:02:11;;;;;;;4.68;1.15;;;;;;;10.68;41.88;102908.75;4909913;28;119413;-68
2023/04/04 09:04:40;;;;;;;3.83;1.60;;;;;;;10.75;42.22;102906.03;4911765;28;118973;-68
2023/04/04 09:07:10;;;;;;;3.80;1.58;;;;;;;10.78;41.24;102906.00;4912231;28;124033;-68
2023/04/04 09:09:39;;;;;;;6.80;1.58;;;;;;;10.82;41.71;102910.38;4912203;28;123998;-72
2023/04/04 09:12:07;;;;;;;3.95;1.77;;;;;;;10.90;41.53;102908.47;4904327;28;118956;-69
2023/04/04 09:14:38;;;;;;;2.47;1.40;;;;;;;10.95;41.37;102906.66;4912422;28;118739;-68
2023/04/04 09:17:07;;;;;;;3.25;1.27;;;;;;;10.96;40.50;102903.09;4902612;28;123992;-69
2023/04/04 09:19:35;;;;;;;2.28;1.23;;;;;;;10.94;40.57;102910.19;4894948;28;123998;-68
2023/04/04 09:22:06;;;;;;;3.17;1.30;;;;;;;10.96;40.41;102903.09;4911091;28;121057;-68
2023/04/04 09:24:41;;;;;;;3.50;1.70;;;;;;;10.98;40.28;102896.00;4905237;28;120454;-71
2023/04/04 09:27:10;;;;;;;3.05;1.20;;;;;;;10.99;40.26;102903.06;4922102;28;124082;-66
2023/04/04 09:29:38;;;;;;;4.50;1.80;;;;;;;11.01;40.50;102901.25;4910066;28;123725;-67
2023/04/04 09:32:14;;;;;;;3.90;1.58;;;;;;;11.12;40.71;102902.91;4909878;28;119927;-67
2023/04/04 09:34:44;;;;;;;2.15;1.13;;;;;;;11.27;40.91;102907.97;4886265;28;117849;-67
2023/04/04 09:37:15;;;;;;;3.42;1.35;;;;;;;11.41;40.48;102905.09;4911075;28;124248;-67
2023/04/04 09:39:43;;;;;;;3.58;1.40;;;;;;;11.49;40.50;102904.09;4909544;28;124979;-67
2023/04/04 09:42:11;;;;;;;2.92;1.33;;;;;;;11.56;40.75;102891.59;4894723;28;118826;-67
2023/04/04 09:44:38;;;;;;;4.65;1.60;;;;;;;11.67;40.61;102902.03;4910828;28;118692;-67
2023/04/04 09:47:26;;;;;;;1.77;1.15;;;;;;;11.76;40.27;102893.94;4899131;28;124079;-68
2023/04/04 09:49:58;;;;;;;3.42;1.40;;;;;;;11.80;39.82;102892.97;4909367;28;124645;-68
2023/04/04 09:52:26;;;;;;;3.25;1.50;;;;;;;11.82;40.09;102880.53;4910790;28;119359;-66
2023/04/04 09:54:55;;;;;;;3.78;1.40;;;;;;;11.92;39.32;102880.41;4911005;28;118778;-67
2023/04/04 09:57:31;;;;;;;3.65;1.60;;;;;;;11.94;38.82;102878.59;4910179;28;124194;-67
2023/04/04 10:00:00;;;;;;;5.70;1.52;;;;;;;11.91;38.50;102884.00;4912438;28;124219;-67
2023/04/04 10:02:30;;;;;;;2.65;1.25;;;;;;;11.87;38.66;102877.81;4891802;28;117855;-67
2023/04/04 10:04:59;;;;;;;5.70;1.50;;;;;;;11.92;39.32;102877.75;4909501;28;118104;-67
2023/04/04 10:07:31;;;;;;;3.28;1.27;;;;;;;12.01;39.46;102880.25;4910315;28;124689;-70
2023/04/04 10:10:03;;;;;;;3.55;1.45;;;;;;;12.12;38.68;102880.94;4911953;28;124234;-68
2023/04/04 10:12:31;;;;;;;7.32;1.48;;;;;;;12.19;38.91;102884.34;4908297;28;120648;-68
2023/04/04 10:15:00;;;;;;;3.60;1.23;;;;;;;12.21;38.74;102874.56;4908843;28;120293;-68
2023/04/04 10:17:35;;;;;;;3.78;1.50;;;;;;;12.19;37.57;102879.91;4910010;28;124647;-68
2023/04/04 10:20:05;;;;;;;4.07;1.30;;;;;;;12.15;37.73;102867.59;4910150;28;124121;-68
2023/04/04 10:22:33;;;;;;;3.70;1.42;;;;;;;12.14;37.73;102864.97;4909338;28;118324;-68
2023/04/04 10:25:00;;;;;;;5.07;1.45;;;;;;;12.15;37.96;102864.94;4911661;28;119047;-68
2023/04/04 10:27:27;;;;;;;2.78;1.35;;;;;;;12.18;37.77;102862.19;4906439;28;124826;-67
2023/04/04 10:29:56;;;;;;;3.42;1.40;;;;;;;12.23;37.87;102865.66;4877867;28;125015;-67
2023/04/04 10:32:32;;;;;;;4.68;1.42;;;;;;;12.31;38.30;102864.63;4908600;28;119901;-68
2023/04/04 10:35:02;;;;;;;3.80;1.50;;;;;;;12.43;37.88;102867.03;4904891;28;119452;-68
2023/04/04 10:38:04;;;;;;;3.28;1.48;;;;;;;12.45;37.77;102865.22;4894217;28;123557;-67
2023/04/04 10:40:36;;;;;;;3.70;1.55;;;;;;;12.46;37.80;102864.31;4899489;28;123938;-66
2023/04/04 10:43:05;;;;;;;3.25;1.50;;;;;;;12.51;38.15;102865.09;4910998;28;119621;-68
2023/04/04 10:45:37;;;;;;;4.85;1.50;;;;;;;12.56;37.69;102857.91;4911699;28;119264;-69
2023/04/04 10:48:07;;;;;;;4.97;1.50;;;;;;;12.59;37.76;102857.84;4896814;28;123795;-68
2023/04/04 10:50:38;;;;;;;2.55;1.67;;;;;;;12.60;37.42;102854.28;4908493;28;124267;-67
2023/04/04 10:53:06;;;;;;;5.82;1.60;;;;;;;12.61;37.47;102856.03;4910897;28;120235;-67
2023/04/04 10:55:35;;;;;;;2.40;1.30;;;;;;;12.64;37.69;102850.66;4908885;28;118987;-70
2023/04/04 10:58:04;;;;;;;4.78;1.52;;;;;;;12.73;37.75;102848.69;4911717;28;124682;-67
2023/04/04 11:00:31;;;;;;;4.45;1.63;;;;;;;12.78;37.60;102841.50;4893730;28;124671;-67
2023/04/04 11:03:00;;;;;;;5.93;1.98;;;;;;;12.78;36.79;102830.88;4909608;28;120783;-68
2023/04/04 11:05:39;;;;;;;3.35;1.63;;;;;;;12.77;37.31;102837.06;4912458;28;120652;-67
2023/04/04 11:08:09;;;;;;;3.30;1.63;;;;;;;12.84;37.22;102841.34;4897403;28;124305;-67
2023/04/04 11:10:38;;;;;;;3.70;1.70;;;;;;;12.89;36.73;102834.16;4908713;28;124010;-68
2023/04/04 11:13:21;;;;;;;3.97;1.80;;;;;;;12.89;36.31;102828.84;4922514;28;119553;-68
2023/04/04 11:16:06;;;;;;;4.40;1.77;;;;;;;12.87;37.06;102830.66;4903972;28;118287;-68
2023/04/04 11:18:37;;;;;;;3.85;1.75;;;;;;;12.92;37.13;102828.78;4907919;28;124217;-67
2023/04/04 11:21:18;;;;;;;5.65;1.92;;;;;;;12.97;36.75;102826.84;4883711;28;123669;-67
2023/04/04 11:23:46;;;;;;;4.60;1.80;;;;;;;12.98;36.63;102815.31;4924213;28;119178;-67
2023/04/04 11:26:26;;;;;;;4.13;1.90;;;;;;;12.96;36.23;102814.50;4909439;28;118782;-67
2023/04/04 11:28:59;;;;;;;3.47;2.15;;;;;;;12.95;36.33;102818.03;4902279;28;124098;-67
2023/04/04 11:31:28;;;;;;;4.25;2.00;;;;;;;12.98;36.42;102817.13;4891923;28;124650;-67
2023/04/04 11:34:08;;;;;;;4.97;1.67;;;;;;;13.04;36.57;102812.50;4908487;28;119018;-68
2023/04/04 11:36:36;;;;;;;5.35;1.60;;;;;;;13.12;36.66;102803.47;4905524;28;118862;-67